This is the latest recevied weather packets stored in our database for station/object HS2XQB-3. If no packets are shown the sender has not sent any weather packets the latest 10 day(s).
| Time | Temp. | Humidity | Pressure | Rain* | Wind** | Luminosity | Snow |
|---|---|---|---|---|---|---|---|
| 1778003269 | 24.44° C | 85% | 1004 hPa | - | - | 0 W/m² | - |
| 1778001447 | 23.33° C | 73% | 1005 hPa | - | - | 0 W/m² | - |
| 1777999624 | 24.44° C | 81% | 1005 hPa | - | - | 0 W/m² | - |
| 1777997802 | 23.89° C | 75% | 1006 hPa | - | - | 0 W/m² | - |
| 1777995980 | 23.33° C | 72% | 1006 hPa | - | - | 0 W/m² | - |
| 1777994158 | 23.89° C | 77% | 1006 hPa | - | - | 0 W/m² | - |
| 1777992336 | 24.44° C | 76% | 1006 hPa | - | - | 0 W/m² | - |
| 1777990513 | 23.89° C | 74% | 1005 hPa | - | - | 0 W/m² | - |
| 1777988691 | 23.89° C | 70% | 1005 hPa | - | - | 0 W/m² | - |
| 1777986869 | 24.44° C | 73% | 1005 hPa | - | - | 0 W/m² | - |
| 1777985047 | 24.44° C | 68% | 1004 hPa | - | - | 0 W/m² | - |
| 1777983225 | 23.33° C | 63% | 1004 hPa | - | - | 0 W/m² | - |
| 1777981402 | 24.44° C | 66% | 1003 hPa | - | - | 0 W/m² | - |
| 1777979580 | 24.44° C | 63% | 1003 hPa | - | - | 0 W/m² | - |
| 1777977759 | 23.89° C | 55% | 1003 hPa | - | - | 0 W/m² | - |
| 1777975936 | 25° C | 58% | 1002 hPa | - | - | 0 W/m² | - |
| 1777974114 | 25.56° C | 56% | 1002 hPa | - | - | 0 W/m² | - |
| 1777972292 | 24.44° C | 45% | 1002 hPa | - | - | 0 W/m² | - |
| 1777970470 | 24.44° C | 46% | 1003 hPa | - | - | 0 W/m² | - |
| 1777968648 | 25° C | 44% | 1003 hPa | - | - | 0 W/m² | - |
| 1777966826 | 25° C | 44% | 1004 hPa | - | - | 0 W/m² | - |
| 1777965004 | 25° C | 44% | 1004 hPa | - | - | 0 W/m² | - |
| 1777963182 | 25.56° C | 44% | 1004 hPa | - | - | 0 W/m² | - |
| 1777961360 | 25° C | 44% | 1005 hPa | - | - | 0 W/m² | - |
| 1777959538 | 25° C | 47% | 1006 hPa | - | - | 0 W/m² | - |
* Rain since midnight (hover to see other rain measurements)
** Current wind speed in m/s (hover to see current wind gust speed)